Airfield :
LOGIN :

Register | Disclaimer

   EN    FR    IT 

 










Legend :    VFR   Marginal VFR   IFR   Intensive IFR   Very Intensive IFR
Visi :
Ceiling :
>= 8 km
>= 3000ft
5 to 8 km
1000 to 3000 ft
1500m to 5 km
500 to 1000 ft
800 to 1500m
200 to 500 ft
< 800m
< 200 ft
Symbols :   Thunderstorms  Fog  Heavy snow  Heavy precipitations  Wind > 20 kt
SIGMETs :     Misc.  Thunderstorms  Icing  Turbulence  Mountain Waves  Volcanic Ashes






- Airport Elevation : 1036 ft
- IATA code : ERF


EDDE - Erfurt

CURRENT METAR :
  • 060450Z 24009KT CAVOK 00/M06 Q1014 NOSIG

EXPIRED METARs :
  • 060420Z 22008KT CAVOK 00/M06 Q1014
  • 060350Z 25005KT 220V280 CAVOK M01/M06 Q1015
  • 060320Z 20006KT CAVOK M00/M06 Q1015
  • 060250Z 21011KT CAVOK 00/M05 Q1015
  • 060220Z VRB02KT CAVOK 01/M06 Q1015

TAF TAF EDDE
Valid from the 06 at 00:00 until the 07 at 00:00 UTC


052300Z 0600/0624 23008KT CAVOK
BECMG 0607/0609 23015G25KT
PROB30
TEMPO 0619/0621 23020G30KT



MET'MAP, your aeronautical weather chart ! - Copyright ORBIFLY December 2007 - Disclaimer

ORBIFLY MET'MAP TEAM :

Programming & Development : Alexandra Zaïnal
Concept & original design : Baudouin d'Aumeries
Assistance for programming : Marc-Olivier Méhu
Technical & hardware support : Manuel Goepfert

Contact : metmap@orbifly.com




SOURCES & CREDITS :

   NOAA